sensor_id;sensor_type;location;lat;lon;timestamp;P1;durP1;ratioP1;P2;durP2;ratioP2
59476;SDS011;73078;49.762;6.594;2024-02-15T00:01:16;11.90;;;5.97;;
59476;SDS011;73078;49.762;6.594;2024-02-15T00:03:42;10.38;;;5.90;;
59476;SDS011;73078;49.762;6.594;2024-02-15T00:06:08;9.15;;;6.10;;
59476;SDS011;73078;49.762;6.594;2024-02-15T00:08:34;11.98;;;6.75;;
59476;SDS011;73078;49.762;6.594;2024-02-15T00:11:00;11.45;;;5.78;;
59476;SDS011;73078;49.762;6.594;2024-02-15T00:13:26;11.43;;;5.88;;
59476;SDS011;73078;49.762;6.594;2024-02-15T00:15:52;9.80;;;5.95;;
59476;SDS011;73078;49.762;6.594;2024-02-15T00:18:17;12.25;;;5.45;;
59476;SDS011;73078;49.762;6.594;2024-02-15T00:20:43;9.15;;;5.68;;
59476;SDS011;73078;49.762;6.594;2024-02-15T00:23:09;11.98;;;6.40;;
59476;SDS011;73078;49.762;6.594;2024-02-15T00:25:35;13.10;;;6.05;;
59476;SDS011;73078;49.762;6.594;2024-02-15T00:28:01;10.50;;;5.80;;
59476;SDS011;73078;49.762;6.594;2024-02-15T00:30:28;7.97;;;5.05;;
59476;SDS011;73078;49.762;6.594;2024-02-15T00:32:54;9.02;;;5.43;;
59476;SDS011;73078;49.762;6.594;2024-02-15T00:35:20;10.07;;;4.82;;
59476;SDS011;73078;49.762;6.594;2024-02-15T00:37:46;8.95;;;5.78;;
59476;SDS011;73078;49.762;6.594;2024-02-15T00:40:12;8.07;;;4.80;;
59476;SDS011;73078;49.762;6.594;2024-02-15T00:42:38;10.43;;;4.72;;
59476;SDS011;73078;49.762;6.594;2024-02-15T00:45:04;9.95;;;4.97;;
59476;SDS011;73078;49.762;6.594;2024-02-15T00:47:30;9.80;;;5.05;;
59476;SDS011;73078;49.762;6.594;2024-02-15T00:49:57;9.20;;;4.20;;
59476;SDS011;73078;49.762;6.594;2024-02-15T00:52:23;8.38;;;4.32;;
59476;SDS011;73078;49.762;6.594;2024-02-15T00:54:50;8.57;;;4.68;;
59476;SDS011;73078;49.762;6.594;2024-02-15T00:57:16;9.82;;;4.78;;
59476;SDS011;73078;49.762;6.594;2024-02-15T00:59:42;7.30;;;4.35;;
59476;SDS011;73078;49.762;6.594;2024-02-15T01:02:08;8.02;;;4.43;;
59476;SDS011;73078;49.762;6.594;2024-02-15T01:04:34;8.48;;;4.47;;
59476;SDS011;73078;49.762;6.594;2024-02-15T01:07:00;10.93;;;4.85;;
59476;SDS011;73078;49.762;6.594;2024-02-15T01:09:26;8.30;;;4.95;;
59476;SDS011;73078;49.762;6.594;2024-02-15T01:11:52;8.00;;;4.18;;
59476;SDS011;73078;49.762;6.594;2024-02-15T01:14:19;8.45;;;4.20;;
59476;SDS011;73078;49.762;6.594;2024-02-15T01:16:45;9.77;;;3.78;;
59476;SDS011;73078;49.762;6.594;2024-02-15T01:19:11;6.68;;;4.43;;
59476;SDS011;73078;49.762;6.594;2024-02-15T01:21:37;9.85;;;4.45;;
59476;SDS011;73078;49.762;6.594;2024-02-15T01:24:04;9.80;;;5.32;;
59476;SDS011;73078;49.762;6.594;2024-02-15T01:26:31;9.10;;;4.57;;
59476;SDS011;73078;49.762;6.594;2024-02-15T01:28:57;8.73;;;4.32;;
59476;SDS011;73078;49.762;6.594;2024-02-15T01:31:23;8.73;;;4.20;;
59476;SDS011;73078;49.762;6.594;2024-02-15T01:33:49;8.90;;;4.47;;
59476;SDS011;73078;49.762;6.594;2024-02-15T01:36:16;13.70;;;5.10;;
59476;SDS011;73078;49.762;6.594;2024-02-15T01:38:42;8.77;;;4.45;;
59476;SDS011;73078;49.762;6.594;2024-02-15T01:41:08;11.25;;;4.18;;
59476;SDS011;73078;49.762;6.594;2024-02-15T01:43:37;9.32;;;4.40;;
59476;SDS011;73078;49.762;6.594;2024-02-15T01:46:10;8.95;;;4.47;;
59476;SDS011;73078;49.762;6.594;2024-02-15T01:48:37;9.88;;;4.57;;
59476;SDS011;73078;49.762;6.594;2024-02-15T01:51:03;7.85;;;3.63;;
59476;SDS011;73078;49.762;6.594;2024-02-15T01:53:30;7.22;;;3.70;;
59476;SDS011;73078;49.762;6.594;2024-02-15T01:55:56;9.77;;;4.72;;
59476;SDS011;73078;49.762;6.594;2024-02-15T01:58:22;8.23;;;4.20;;
59476;SDS011;73078;49.762;6.594;2024-02-15T02:00:49;8.88;;;3.83;;
59476;SDS011;73078;49.762;6.594;2024-02-15T02:03:15;8.20;;;3.80;;
59476;SDS011;73078;49.762;6.594;2024-02-15T02:05:42;12.10;;;4.13;;
59476;SDS011;73078;49.762;6.594;2024-02-15T02:08:07;6.53;;;3.95;;
59476;SDS011;73078;49.762;6.594;2024-02-15T02:10:37;8.40;;;3.97;;
59476;SDS011;73078;49.762;6.594;2024-02-15T02:13:04;8.15;;;4.05;;
59476;SDS011;73078;49.762;6.594;2024-02-15T02:15:33;7.03;;;3.90;;
59476;SDS011;73078;49.762;6.594;2024-02-15T02:18:02;6.65;;;3.88;;
59476;SDS011;73078;49.762;6.594;2024-02-15T02:20:33;7.57;;;4.00;;
59476;SDS011;73078;49.762;6.594;2024-02-15T02:23:14;5.70;;;3.60;;
59476;SDS011;73078;49.762;6.594;2024-02-15T02:25:41;9.15;;;3.92;;
59476;SDS011;73078;49.762;6.594;2024-02-15T02:28:08;9.93;;;3.92;;
59476;SDS011;73078;49.762;6.594;2024-02-15T02:30:35;3.85;;;3.17;;
59476;SDS011;73078;49.762;6.594;2024-02-15T02:33:01;9.63;;;3.60;;
59476;SDS011;73078;49.762;6.594;2024-02-15T02:35:27;7.07;;;3.78;;
59476;SDS011;73078;49.762;6.594;2024-02-15T02:37:55;9.63;;;3.90;;
59476;SDS011;73078;49.762;6.594;2024-02-15T02:40:21;9.88;;;3.97;;
59476;SDS011;73078;49.762;6.594;2024-02-15T02:42:50;5.63;;;3.47;;
59476;SDS011;73078;49.762;6.594;2024-02-15T02:45:17;7.05;;;3.72;;
59476;SDS011;73078;49.762;6.594;2024-02-15T02:47:45;7.22;;;4.07;;
59476;SDS011;73078;49.762;6.594;2024-02-15T02:50:15;7.95;;;3.97;;
59476;SDS011;73078;49.762;6.594;2024-02-15T02:52:41;7.50;;;4.03;;
59476;SDS011;73078;49.762;6.594;2024-02-15T02:55:07;6.20;;;3.47;;
59476;SDS011;73078;49.762;6.594;2024-02-15T02:57:33;10.40;;;3.50;;
59476;SDS011;73078;49.762;6.594;2024-02-15T03:00:00;8.85;;;4.30;;
59476;SDS011;73078;49.762;6.594;2024-02-15T03:02:29;7.93;;;3.75;;
59476;SDS011;73078;49.762;6.594;2024-02-15T03:04:56;7.10;;;3.55;;
59476;SDS011;73078;49.762;6.594;2024-02-15T03:07:24;9.02;;;4.05;;
59476;SDS011;73078;49.762;6.594;2024-02-15T03:09:51;6.40;;;3.80;;
59476;SDS011;73078;49.762;6.594;2024-02-15T03:12:17;10.15;;;4.57;;
59476;SDS011;73078;49.762;6.594;2024-02-15T03:14:43;6.53;;;3.35;;
59476;SDS011;73078;49.762;6.594;2024-02-15T03:17:10;8.07;;;4.10;;
59476;SDS011;73078;49.762;6.594;2024-02-15T03:19:36;8.43;;;3.83;;
59476;SDS011;73078;49.762;6.594;2024-02-15T03:22:02;5.72;;;3.42;;
59476;SDS011;73078;49.762;6.594;2024-02-15T03:24:28;7.70;;;4.00;;
59476;SDS011;73078;49.762;6.594;2024-02-15T03:26:54;8.02;;;3.42;;
59476;SDS011;73078;49.762;6.594;2024-02-15T03:29:20;6.57;;;3.25;;
59476;SDS011;73078;49.762;6.594;2024-02-15T03:31:47;7.45;;;4.30;;
59476;SDS011;73078;49.762;6.594;2024-02-15T03:34:14;9.43;;;3.63;;
59476;SDS011;73078;49.762;6.594;2024-02-15T03:36:40;7.63;;;4.13;;
59476;SDS011;73078;49.762;6.594;2024-02-15T03:39:06;9.48;;;4.20;;
59476;SDS011;73078;49.762;6.594;2024-02-15T03:41:33;7.32;;;4.90;;
59476;SDS011;73078;49.762;6.594;2024-02-15T03:43:59;6.25;;;4.05;;
59476;SDS011;73078;49.762;6.594;2024-02-15T03:46:25;7.18;;;3.97;;
59476;SDS011;73078;49.762;6.594;2024-02-15T03:48:53;14.20;;;4.80;;
59476;SDS011;73078;49.762;6.594;2024-02-15T03:51:21;8.02;;;3.95;;
59476;SDS011;73078;49.762;6.594;2024-02-15T03:53:49;12.07;;;5.45;;
59476;SDS011;73078;49.762;6.594;2024-02-15T03:56:17;9.30;;;4.90;;
59476;SDS011;73078;49.762;6.594;2024-02-15T03:58:42;8.88;;;4.47;;
59476;SDS011;73078;49.762;6.594;2024-02-15T04:01:09;9.40;;;4.43;;
59476;SDS011;73078;49.762;6.594;2024-02-15T04:03:38;7.87;;;4.27;;
59476;SDS011;73078;49.762;6.594;2024-02-15T04:06:04;8.18;;;4.22;;
59476;SDS011;73078;49.762;6.594;2024-02-15T04:08:31;8.45;;;4.82;;
59476;SDS011;73078;49.762;6.594;2024-02-15T04:10:58;8.10;;;4.32;;
59476;SDS011;73078;49.762;6.594;2024-02-15T04:13:24;10.80;;;4.68;;
59476;SDS011;73078;49.762;6.594;2024-02-15T04:15:50;9.77;;;4.60;;
59476;SDS011;73078;49.762;6.594;2024-02-15T04:18:18;8.63;;;4.80;;
59476;SDS011;73078;49.762;6.594;2024-02-15T04:20:44;9.73;;;4.82;;
59476;SDS011;73078;49.762;6.594;2024-02-15T04:23:11;7.28;;;4.35;;
59476;SDS011;73078;49.762;6.594;2024-02-15T04:25:38;10.27;;;4.70;;
59476;SDS011;73078;49.762;6.594;2024-02-15T04:28:05;9.68;;;4.60;;
59476;SDS011;73078;49.762;6.594;2024-02-15T04:30:33;9.15;;;4.45;;
59476;SDS011;73078;49.762;6.594;2024-02-15T04:33:03;7.35;;;4.30;;
59476;SDS011;73078;49.762;6.594;2024-02-15T04:35:29;10.23;;;4.15;;
59476;SDS011;73078;49.762;6.594;2024-02-15T04:37:55;8.68;;;3.72;;
59476;SDS011;73078;49.762;6.594;2024-02-15T04:40:22;9.88;;;3.67;;
59476;SDS011;73078;49.762;6.594;2024-02-15T04:42:48;7.68;;;3.83;;
59476;SDS011;73078;49.762;6.594;2024-02-15T04:45:14;9.95;;;3.55;;
59476;SDS011;73078;49.762;6.594;2024-02-15T04:47:41;5.22;;;3.55;;
59476;SDS011;73078;49.762;6.594;2024-02-15T04:50:07;10.38;;;3.83;;
59476;SDS011;73078;49.762;6.594;2024-02-15T04:52:34;5.15;;;3.10;;
59476;SDS011;73078;49.762;6.594;2024-02-15T04:55:00;5.78;;;3.50;;
59476;SDS011;73078;49.762;6.594;2024-02-15T04:57:26;6.28;;;3.67;;
59476;SDS011;73078;49.762;6.594;2024-02-15T04:59:53;6.72;;;3.53;;
59476;SDS011;73078;49.762;6.594;2024-02-15T05:02:19;8.23;;;3.65;;
59476;SDS011;73078;49.762;6.594;2024-02-15T05:04:47;6.90;;;3.10;;
59476;SDS011;73078;49.762;6.594;2024-02-15T05:07:13;8.55;;;3.95;;
59476;SDS011;73078;49.762;6.594;2024-02-15T05:09:42;7.63;;;3.60;;
59476;SDS011;73078;49.762;6.594;2024-02-15T05:12:08;6.05;;;3.58;;
59476;SDS011;73078;49.762;6.594;2024-02-15T05:14:33;7.82;;;3.58;;
59476;SDS011;73078;49.762;6.594;2024-02-15T05:17:01;3.78;;;3.10;;
59476;SDS011;73078;49.762;6.594;2024-02-15T05:19:27;7.55;;;3.80;;
59476;SDS011;73078;49.762;6.594;2024-02-15T05:21:55;6.85;;;3.63;;
59476;SDS011;73078;49.762;6.594;2024-02-15T05:24:21;6.60;;;3.53;;
59476;SDS011;73078;49.762;6.594;2024-02-15T05:26:47;6.10;;;3.38;;
59476;SDS011;73078;49.762;6.594;2024-02-15T05:29:16;6.50;;;3.50;;
59476;SDS011;73078;49.762;6.594;2024-02-15T05:31:42;6.95;;;3.42;;
59476;SDS011;73078;49.762;6.594;2024-02-15T05:34:10;6.18;;;3.58;;
59476;SDS011;73078;49.762;6.594;2024-02-15T05:36:39;8.73;;;3.95;;
59476;SDS011;73078;49.762;6.594;2024-02-15T05:39:05;9.52;;;3.70;;
59476;SDS011;73078;49.762;6.594;2024-02-15T05:41:32;6.55;;;3.13;;
59476;SDS011;73078;49.762;6.594;2024-02-15T05:43:58;8.13;;;3.40;;
59476;SDS011;73078;49.762;6.594;2024-02-15T05:46:24;8.35;;;3.10;;
59476;SDS011;73078;49.762;6.594;2024-02-15T05:48:50;6.65;;;3.45;;
59476;SDS011;73078;49.762;6.594;2024-02-15T05:51:16;5.05;;;3.20;;
59476;SDS011;73078;49.762;6.594;2024-02-15T05:53:42;7.07;;;3.17;;
59476;SDS011;73078;49.762;6.594;2024-02-15T05:56:09;5.88;;;2.90;;
59476;SDS011;73078;49.762;6.594;2024-02-15T05:58:35;2.90;;;2.17;;
59476;SDS011;73078;49.762;6.594;2024-02-15T06:01:02;7.10;;;3.00;;
59476;SDS011;73078;49.762;6.594;2024-02-15T06:05:58;5.13;;;3.00;;
59476;SDS011;73078;49.762;6.594;2024-02-15T06:08:26;6.97;;;3.33;;
59476;SDS011;73078;49.762;6.594;2024-02-15T06:10:54;4.20;;;2.75;;
59476;SDS011;73078;49.762;6.594;2024-02-15T06:13:20;5.18;;;2.78;;
59476;SDS011;73078;49.762;6.594;2024-02-15T06:15:46;5.43;;;2.80;;
59476;SDS011;73078;49.762;6.594;2024-02-15T06:18:17;5.10;;;2.75;;
59476;SDS011;73078;49.762;6.594;2024-02-15T06:20:46;6.07;;;3.03;;
59476;SDS011;73078;49.762;6.594;2024-02-15T06:23:14;6.22;;;3.10;;
59476;SDS011;73078;49.762;6.594;2024-02-15T06:25:40;6.82;;;3.00;;
59476;SDS011;73078;49.762;6.594;2024-02-15T06:28:06;5.32;;;2.85;;
59476;SDS011;73078;49.762;6.594;2024-02-15T06:30:39;6.88;;;2.75;;
59476;SDS011;73078;49.762;6.594;2024-02-15T06:33:24;6.05;;;3.20;;
59476;SDS011;73078;49.762;6.594;2024-02-15T06:36:08;4.03;;;3.05;;
59476;SDS011;73078;49.762;6.594;2024-02-15T06:38:53;7.18;;;3.55;;
59476;SDS011;73078;49.762;6.594;2024-02-15T06:41:38;5.95;;;3.30;;
59476;SDS011;73078;49.762;6.594;2024-02-15T06:44:04;4.38;;;3.22;;
59476;SDS011;73078;49.762;6.594;2024-02-15T06:46:30;7.78;;;4.03;;
59476;SDS011;73078;49.762;6.594;2024-02-15T06:48:56;8.10;;;3.60;;
59476;SDS011;73078;49.762;6.594;2024-02-15T06:51:23;4.68;;;3.20;;
59476;SDS011;73078;49.762;6.594;2024-02-15T06:53:49;5.32;;;2.85;;
59476;SDS011;73078;49.762;6.594;2024-02-15T06:56:16;5.88;;;3.58;;
59476;SDS011;73078;49.762;6.594;2024-02-15T06:58:43;8.10;;;3.42;;
59476;SDS011;73078;49.762;6.594;2024-02-15T07:01:09;6.53;;;3.20;;
59476;SDS011;73078;49.762;6.594;2024-02-15T07:03:35;6.63;;;3.05;;
59476;SDS011;73078;49.762;6.594;2024-02-15T07:06:02;5.38;;;3.17;;
59476;SDS011;73078;49.762;6.594;2024-02-15T07:08:28;8.00;;;3.72;;
59476;SDS011;73078;49.762;6.594;2024-02-15T07:10:54;6.78;;;3.30;;
59476;SDS011;73078;49.762;6.594;2024-02-15T07:13:20;5.53;;;3.13;;
59476;SDS011;73078;49.762;6.594;2024-02-15T07:15:47;6.55;;;3.33;;
59476;SDS011;73078;49.762;6.594;2024-02-15T07:18:15;4.93;;;2.92;;
59476;SDS011;73078;49.762;6.594;2024-02-15T07:20:47;5.65;;;3.00;;
59476;SDS011;73078;49.762;6.594;2024-02-15T07:23:13;4.25;;;2.60;;
59476;SDS011;73078;49.762;6.594;2024-02-15T07:25:39;4.25;;;2.65;;
59476;SDS011;73078;49.762;6.594;2024-02-15T07:28:05;5.72;;;3.05;;
59476;SDS011;73078;49.762;6.594;2024-02-15T07:30:34;7.22;;;3.00;;
59476;SDS011;73078;49.762;6.594;2024-02-15T07:33:01;5.03;;;2.92;;
59476;SDS011;73078;49.762;6.594;2024-02-15T07:35:27;5.22;;;3.05;;
59476;SDS011;73078;49.762;6.594;2024-02-15T07:37:54;6.55;;;2.97;;
59476;SDS011;73078;49.762;6.594;2024-02-15T07:40:23;5.78;;;3.00;;
59476;SDS011;73078;49.762;6.594;2024-02-15T07:42:52;6.57;;;3.17;;
59476;SDS011;73078;49.762;6.594;2024-02-15T07:45:18;7.40;;;3.30;;
59476;SDS011;73078;49.762;6.594;2024-02-15T07:47:44;5.93;;;2.95;;
59476;SDS011;73078;49.762;6.594;2024-02-15T07:50:10;6.75;;;2.95;;
59476;SDS011;73078;49.762;6.594;2024-02-15T07:52:41;5.65;;;2.97;;
59476;SDS011;73078;49.762;6.594;2024-02-15T07:55:07;6.20;;;2.78;;
59476;SDS011;73078;49.762;6.594;2024-02-15T07:57:34;4.75;;;2.70;;
59476;SDS011;73078;49.762;6.594;2024-02-15T08:00:00;5.30;;;3.35;;
59476;SDS011;73078;49.762;6.594;2024-02-15T08:02:26;6.30;;;2.95;;
59476;SDS011;73078;49.762;6.594;2024-02-15T08:04:53;4.93;;;2.55;;
59476;SDS011;73078;49.762;6.594;2024-02-15T08:07:19;7.80;;;3.40;;
59476;SDS011;73078;49.762;6.594;2024-02-15T08:09:46;7.88;;;2.88;;
59476;SDS011;73078;49.762;6.594;2024-02-15T08:14:43;5.28;;;3.20;;
59476;SDS011;73078;49.762;6.594;2024-02-15T08:17:09;6.28;;;2.88;;
59476;SDS011;73078;49.762;6.594;2024-02-15T08:19:37;5.82;;;3.20;;
59476;SDS011;73078;49.762;6.594;2024-02-15T08:22:06;4.63;;;2.85;;
59476;SDS011;73078;49.762;6.594;2024-02-15T08:24:33;7.78;;;3.13;;
59476;SDS011;73078;49.762;6.594;2024-02-15T08:26:59;6.65;;;3.42;;
59476;SDS011;73078;49.762;6.594;2024-02-15T08:29:25;7.75;;;3.17;;
59476;SDS011;73078;49.762;6.594;2024-02-15T08:31:51;5.30;;;3.40;;
59476;SDS011;73078;49.762;6.594;2024-02-15T08:34:17;7.78;;;3.08;;
59476;SDS011;73078;49.762;6.594;2024-02-15T08:36:49;5.70;;;3.28;;
59476;SDS011;73078;49.762;6.594;2024-02-15T08:39:16;6.57;;;3.90;;
59476;SDS011;73078;49.762;6.594;2024-02-15T08:41:42;7.68;;;3.40;;
59476;SDS011;73078;49.762;6.594;2024-02-15T08:44:08;6.45;;;3.30;;
59476;SDS011;73078;49.762;6.594;2024-02-15T08:46:37;8.02;;;3.25;;
59476;SDS011;73078;49.762;6.594;2024-02-15T08:49:03;6.95;;;3.80;;
59476;SDS011;73078;49.762;6.594;2024-02-15T08:51:29;11.55;;;4.18;;
59476;SDS011;73078;49.762;6.594;2024-02-15T08:53:55;6.40;;;3.90;;
59476;SDS011;73078;49.762;6.594;2024-02-15T08:56:21;6.40;;;3.33;;
59476;SDS011;73078;49.762;6.594;2024-02-15T08:58:50;7.00;;;3.25;;
59476;SDS011;73078;49.762;6.594;2024-02-15T09:01:16;5.35;;;3.10;;
59476;SDS011;73078;49.762;6.594;2024-02-15T09:03:42;7.05;;;3.60;;
59476;SDS011;73078;49.762;6.594;2024-02-15T09:06:10;6.05;;;3.20;;
59476;SDS011;73078;49.762;6.594;2024-02-15T09:08:36;5.63;;;3.38;;
59476;SDS011;73078;49.762;6.594;2024-02-15T09:11:03;4.45;;;3.00;;
59476;SDS011;73078;49.762;6.594;2024-02-15T09:13:29;5.63;;;3.05;;
59476;SDS011;73078;49.762;6.594;2024-02-15T09:15:55;7.25;;;3.70;;
59476;SDS011;73078;49.762;6.594;2024-02-15T09:18:21;7.47;;;3.40;;
59476;SDS011;73078;49.762;6.594;2024-02-15T09:20:50;5.05;;;3.03;;
59476;SDS011;73078;49.762;6.594;2024-02-15T09:23:20;6.50;;;3.13;;
59476;SDS011;73078;49.762;6.594;2024-02-15T09:25:48;7.22;;;3.50;;
59476;SDS011;73078;49.762;6.594;2024-02-15T09:28:16;5.22;;;3.00;;
59476;SDS011;73078;49.762;6.594;2024-02-15T09:30:47;6.15;;;3.05;;
59476;SDS011;73078;49.762;6.594;2024-02-15T09:33:13;5.43;;;2.90;;
59476;SDS011;73078;49.762;6.594;2024-02-15T09:35:39;5.47;;;3.38;;
59476;SDS011;73078;49.762;6.594;2024-02-15T09:38:05;7.82;;;3.58;;
59476;SDS011;73078;49.762;6.594;2024-02-15T09:40:38;8.13;;;3.15;;
59476;SDS011;73078;49.762;6.594;2024-02-15T09:43:05;16.05;;;3.00;;
59476;SDS011;73078;49.762;6.594;2024-02-15T09:45:31;5.63;;;3.28;;
59476;SDS011;73078;49.762;6.594;2024-02-15T09:48:00;4.78;;;3.00;;
59476;SDS011;73078;49.762;6.594;2024-02-15T09:50:29;5.80;;;3.20;;
59476;SDS011;73078;49.762;6.594;2024-02-15T09:52:58;6.57;;;3.13;;
59476;SDS011;73078;49.762;6.594;2024-02-15T09:55:27;5.50;;;2.70;;
59476;SDS011;73078;49.762;6.594;2024-02-15T09:57:54;5.55;;;2.88;;
59476;SDS011;73078;49.762;6.594;2024-02-15T10:00:20;5.68;;;2.72;;
59476;SDS011;73078;49.762;6.594;2024-02-15T10:02:47;6.80;;;2.90;;
59476;SDS011;73078;49.762;6.594;2024-02-15T10:05:13;5.53;;;2.78;;
59476;SDS011;73078;49.762;6.594;2024-02-15T10:07:42;5.60;;;3.15;;
59476;SDS011;73078;49.762;6.594;2024-02-15T10:10:24;6.85;;;2.97;;
59476;SDS011;73078;49.762;6.594;2024-02-15T10:12:52;7.93;;;3.42;;
59476;SDS011;73078;49.762;6.594;2024-02-15T10:15:31;5.82;;;2.63;;
59476;SDS011;73078;49.762;6.594;2024-02-15T10:17:59;6.70;;;3.10;;
59476;SDS011;73078;49.762;6.594;2024-02-15T10:20:25;5.88;;;3.17;;
59476;SDS011;73078;49.762;6.594;2024-02-15T10:23:13;5.25;;;3.33;;
59476;SDS011;73078;49.762;6.594;2024-02-15T10:25:38;5.10;;;2.88;;
59476;SDS011;73078;49.762;6.594;2024-02-15T10:28:07;4.93;;;2.95;;
59476;SDS011;73078;49.762;6.594;2024-02-15T10:30:36;5.88;;;2.92;;
59476;SDS011;73078;49.762;6.594;2024-02-15T10:33:03;5.47;;;2.97;;
59476;SDS011;73078;49.762;6.594;2024-02-15T10:35:29;4.75;;;2.90;;
59476;SDS011;73078;49.762;6.594;2024-02-15T10:38:11;4.80;;;2.70;;
59476;SDS011;73078;49.762;6.594;2024-02-15T10:40:38;4.82;;;2.45;;
59476;SDS011;73078;49.762;6.594;2024-02-15T10:43:06;6.78;;;3.15;;
59476;SDS011;73078;49.762;6.594;2024-02-15T10:45:34;5.18;;;3.00;;
59476;SDS011;73078;49.762;6.594;2024-02-15T10:48:01;5.10;;;2.72;;
59476;SDS011;73078;49.762;6.594;2024-02-15T10:50:29;5.28;;;3.00;;
59476;SDS011;73078;49.762;6.594;2024-02-15T10:52:56;5.78;;;3.03;;
59476;SDS011;73078;49.762;6.594;2024-02-15T10:58:03;6.97;;;3.38;;
59476;SDS011;73078;49.762;6.594;2024-02-15T11:00:34;9.13;;;2.97;;
59476;SDS011;73078;49.762;6.594;2024-02-15T11:03:05;4.30;;;2.80;;
59476;SDS011;73078;49.762;6.594;2024-02-15T11:05:36;4.88;;;2.67;;
59476;SDS011;73078;49.762;6.594;2024-02-15T11:08:07;3.38;;;2.53;;
59476;SDS011;73078;49.762;6.594;2024-02-15T11:10:34;5.80;;;3.03;;
59476;SDS011;73078;49.762;6.594;2024-02-15T11:13:00;4.00;;;2.50;;
59476;SDS011;73078;49.762;6.594;2024-02-15T11:15:45;7.35;;;2.65;;
59476;SDS011;73078;49.762;6.594;2024-02-15T11:18:23;4.35;;;3.00;;
59476;SDS011;73078;49.762;6.594;2024-02-15T11:21:00;4.93;;;2.78;;
59476;SDS011;73078;49.762;6.594;2024-02-15T11:23:26;3.78;;;2.45;;
59476;SDS011;73078;49.762;6.594;2024-02-15T11:25:52;5.35;;;2.63;;
59476;SDS011;73078;49.762;6.594;2024-02-15T11:30:47;3.80;;;2.33;;
59476;SDS011;73078;49.762;6.594;2024-02-15T11:33:34;6.15;;;2.50;;
59476;SDS011;73078;49.762;6.594;2024-02-15T11:36:04;6.68;;;2.50;;
59476;SDS011;73078;49.762;6.594;2024-02-15T11:38:31;5.10;;;2.35;;
59476;SDS011;73078;49.762;6.594;2024-02-15T11:46:12;3.72;;;2.58;;
59476;SDS011;73078;49.762;6.594;2024-02-15T11:48:38;3.70;;;2.50;;
59476;SDS011;73078;49.762;6.594;2024-02-15T11:51:05;3.35;;;2.30;;
59476;SDS011;73078;49.762;6.594;2024-02-15T11:53:32;4.95;;;2.40;;
59476;SDS011;73078;49.762;6.594;2024-02-15T11:56:01;6.07;;;2.58;;
59476;SDS011;73078;49.762;6.594;2024-02-15T11:58:29;4.22;;;2.47;;
59476;SDS011;73078;49.762;6.594;2024-02-15T12:01:07;4.47;;;2.45;;
59476;SDS011;73078;49.762;6.594;2024-02-15T12:03:55;5.93;;;2.70;;
59476;SDS011;73078;49.762;6.594;2024-02-15T12:06:39;3.78;;;2.40;;
59476;SDS011;73078;49.762;6.594;2024-02-15T12:09:24;4.57;;;2.65;;
59476;SDS011;73078;49.762;6.594;2024-02-15T12:12:12;4.75;;;2.58;;
59476;SDS011;73078;49.762;6.594;2024-02-15T12:15:02;5.65;;;2.60;;
59476;SDS011;73078;49.762;6.594;2024-02-15T12:17:47;4.45;;;2.38;;
59476;SDS011;73078;49.762;6.594;2024-02-15T12:20:32;4.18;;;2.58;;
59476;SDS011;73078;49.762;6.594;2024-02-15T12:22:59;5.60;;;2.60;;
59476;SDS011;73078;49.762;6.594;2024-02-15T12:25:25;4.85;;;2.33;;
59476;SDS011;73078;49.762;6.594;2024-02-15T12:27:55;4.75;;;2.50;;
59476;SDS011;73078;49.762;6.594;2024-02-15T12:30:21;4.40;;;2.55;;
59476;SDS011;73078;49.762;6.594;2024-02-15T12:32:51;4.45;;;2.70;;
59476;SDS011;73078;49.762;6.594;2024-02-15T12:40:34;3.50;;;2.28;;
59476;SDS011;73078;49.762;6.594;2024-02-15T12:43:01;4.70;;;2.70;;
59476;SDS011;73078;49.762;6.594;2024-02-15T12:45:30;3.45;;;2.20;;
59476;SDS011;73078;49.762;6.594;2024-02-15T12:47:56;4.13;;;2.50;;
59476;SDS011;73078;49.762;6.594;2024-02-15T12:50:31;5.13;;;2.55;;
59476;SDS011;73078;49.762;6.594;2024-02-15T12:52:57;3.90;;;2.40;;
59476;SDS011;73078;49.762;6.594;2024-02-15T12:55:30;4.50;;;2.25;;
59476;SDS011;73078;49.762;6.594;2024-02-15T12:57:59;4.38;;;2.40;;
59476;SDS011;73078;49.762;6.594;2024-02-15T13:00:29;4.30;;;2.25;;
59476;SDS011;73078;49.762;6.594;2024-02-15T13:02:57;3.42;;;2.10;;
59476;SDS011;73078;49.762;6.594;2024-02-15T13:05:26;3.03;;;2.20;;
59476;SDS011;73078;49.762;6.594;2024-02-15T13:07:53;6.68;;;2.60;;
59476;SDS011;73078;49.762;6.594;2024-02-15T13:10:23;4.35;;;2.20;;
59476;SDS011;73078;49.762;6.594;2024-02-15T13:12:51;3.38;;;2.35;;
59476;SDS011;73078;49.762;6.594;2024-02-15T13:15:17;4.05;;;2.10;;
59476;SDS011;73078;49.762;6.594;2024-02-15T13:17:46;3.17;;;2.10;;
59476;SDS011;73078;49.762;6.594;2024-02-15T13:20:19;3.10;;;2.08;;
59476;SDS011;73078;49.762;6.594;2024-02-15T13:22:52;4.80;;;2.15;;
59476;SDS011;73078;49.762;6.594;2024-02-15T13:25:22;4.72;;;2.53;;
59476;SDS011;73078;49.762;6.594;2024-02-15T13:27:48;4.93;;;2.30;;
59476;SDS011;73078;49.762;6.594;2024-02-15T13:30:14;4.13;;;2.25;;
59476;SDS011;73078;49.762;6.594;2024-02-15T13:32:42;3.40;;;2.00;;
59476;SDS011;73078;49.762;6.594;2024-02-15T13:35:09;3.97;;;2.30;;
59476;SDS011;73078;49.762;6.594;2024-02-15T13:37:39;3.75;;;2.35;;
59476;SDS011;73078;49.762;6.594;2024-02-15T13:40:07;3.88;;;2.38;;
59476;SDS011;73078;49.762;6.594;2024-02-15T13:42:43;3.45;;;2.08;;
59476;SDS011;73078;49.762;6.594;2024-02-15T13:45:15;4.13;;;2.53;;
59476;SDS011;73078;49.762;6.594;2024-02-15T13:47:43;3.08;;;2.20;;
59476;SDS011;73078;49.762;6.594;2024-02-15T13:50:11;4.95;;;2.25;;
59476;SDS011;73078;49.762;6.594;2024-02-15T13:52:39;3.80;;;2.50;;
59476;SDS011;73078;49.762;6.594;2024-02-15T13:55:06;5.10;;;2.42;;
59476;SDS011;73078;49.762;6.594;2024-02-15T13:57:33;3.83;;;2.50;;
59476;SDS011;73078;49.762;6.594;2024-02-15T13:59:59;3.75;;;2.42;;
59476;SDS011;73078;49.762;6.594;2024-02-15T14:02:25;5.90;;;2.70;;
59476;SDS011;73078;49.762;6.594;2024-02-15T14:04:51;6.65;;;2.72;;
59476;SDS011;73078;49.762;6.594;2024-02-15T14:07:17;7.75;;;2.60;;
59476;SDS011;73078;49.762;6.594;2024-02-15T14:09:43;4.75;;;2.30;;
59476;SDS011;73078;49.762;6.594;2024-02-15T14:12:09;5.07;;;2.90;;
59476;SDS011;73078;49.762;6.594;2024-02-15T14:14:34;4.40;;;2.35;;
59476;SDS011;73078;49.762;6.594;2024-02-15T14:17:00;3.50;;;2.20;;
59476;SDS011;73078;49.762;6.594;2024-02-15T14:19:27;5.13;;;2.35;;
59476;SDS011;73078;49.762;6.594;2024-02-15T14:21:53;7.63;;;2.58;;
59476;SDS011;73078;49.762;6.594;2024-02-15T14:24:19;8.48;;;2.53;;
59476;SDS011;73078;49.762;6.594;2024-02-15T14:26:48;3.08;;;2.40;;
59476;SDS011;73078;49.762;6.594;2024-02-15T14:29:14;5.32;;;2.45;;
59476;SDS011;73078;49.762;6.594;2024-02-15T14:31:40;4.90;;;2.60;;
59476;SDS011;73078;49.762;6.594;2024-02-15T14:34:25;8.38;;;2.47;;
59476;SDS011;73078;49.762;6.594;2024-02-15T14:36:51;6.03;;;2.40;;
59476;SDS011;73078;49.762;6.594;2024-02-15T14:39:17;6.30;;;2.50;;
59476;SDS011;73078;49.762;6.594;2024-02-15T14:41:44;4.45;;;2.72;;
59476;SDS011;73078;49.762;6.594;2024-02-15T14:44:10;3.50;;;2.40;;
59476;SDS011;73078;49.762;6.594;2024-02-15T14:46:37;3.85;;;2.50;;
59476;SDS011;73078;49.762;6.594;2024-02-15T14:49:03;6.38;;;2.63;;
59476;SDS011;73078;49.762;6.594;2024-02-15T14:51:29;3.08;;;2.33;;
59476;SDS011;73078;49.762;6.594;2024-02-15T14:53:56;5.03;;;2.45;;
59476;SDS011;73078;49.762;6.594;2024-02-15T14:56:23;5.13;;;2.20;;
59476;SDS011;73078;49.762;6.594;2024-02-15T14:58:49;4.07;;;2.20;;
59476;SDS011;73078;49.762;6.594;2024-02-15T15:01:15;4.60;;;2.33;;
59476;SDS011;73078;49.762;6.594;2024-02-15T15:03:41;4.15;;;2.30;;
59476;SDS011;73078;49.762;6.594;2024-02-15T15:06:08;4.13;;;2.30;;
59476;SDS011;73078;49.762;6.594;2024-02-15T15:08:53;2.90;;;2.40;;
59476;SDS011;73078;49.762;6.594;2024-02-15T15:11:37;3.20;;;2.20;;
59476;SDS011;73078;49.762;6.594;2024-02-15T15:14:22;3.15;;;2.10;;